Terminal Aerodrome Forecast
Issued by NWS

Current Version | Previous Version | Text Only | Print | Product List | Glossary Off
Versions: 1 2 3 4 5 6 7 8 9 10 11 12 13 14 15 16 17 18 19 20 21 22 23

852
FTUS41 KPBZ 170531
TAFHLG
TAF
KHLG 170531Z 1706/1806 16003KT 2SM BR VCSH BKN025
     FM170900 16005KT 3SM -RA BR OVC015
     FM171100 17006KT 3SM -RA BR OVC008 WS020/21030KT
     FM171700 21010G18KT P6SM -RA OVC015
     FM172100 25012G21KT P6SM -RA OVC008=

USA.gov is the U.S. government's official web portal to all federal, state and local government web resources and services.